Depesze METAR lotnisk w Polsce

EPWA EPMO EPKK EPLL EPWR EPKT EPGD EPPO EPRZ EPSC EPLB EPBY EPZG EPSY EPCE EPDA EPDE EPIR EPKS EPLK EPLY EPMB EPMI EPMM EPNA EPOK EPPR EPPW EPRA EPSN EPTM

METAR – format kodowanego raportu o pogodzie używany w meteorologii lotniczej i prognozie pogody. METAR jest akronimem od ang. Meteorological Aerodrome Report. Typowy METAR zawiera informację o temperaturze, ciśnieniu, temperaturze punktu rosy, sile i kierunku wiatru, opadzie, pokrywie chmur, wysokości podstawy chmur, widzialności, lecz może zawierać też inne informacje (np. stan dróg startowych).

Warszawa-Okęcie (EPWA)

METAR = EPWA 070730Z 21005KT 190V250 9999 -RA FEW012 BKN030 08/06 Q1004 NOSIG

STACJA........... EPWA - Warszawa-Okęcie (WAW)
POMIAR........... Fri May 7, 09:30 CEST
WIATR............ południowo południowo-zachodni  (SSW) z prędkością 9 km/h
WIDZIALNOŚĆ...... powyżej 10 kilometrów
WARUNKI.......... słaby: deszcz 
CHMURY........... zachmurzenie średnie (5/8-7/8)
TEMPERATURA...... 8°C
T.PUNKTU ROSY.... 6°C
WILGOTNOŚĆ....... 87%
T.ODCZUWALNA..... 6°C
CIŚNIENIE........ 1004 hPa
CIŚN.BEZWZGL..... 991 hPa
PROGNOZA......... bez nagłych zmian w ciągu 2h

Sprawdź też: Prognoza pogody Warszawa


Warszawa-Modlin (EPMO)

METAR = EPMO 070730Z 02006KT 9999 -RA FEW009 BKN030 07/07 Q1004 =

STACJA........... EPMO - Warszawa-Modlin (WMI)
POMIAR........... Fri May 7, 09:30 CEST
WIATR............ północno północno-wschodni (NNE) z prędkością 11 km/h
WIDZIALNOŚĆ...... powyżej 10 kilometrów
WARUNKI.......... słaby: deszcz 
CHMURY........... zachmurzenie średnie (5/8-7/8)
TEMPERATURA...... 7°C
T.PUNKTU ROSY.... 7°C
WILGOTNOŚĆ....... 100%
T.ODCZUWALNA..... 5°C
CIŚNIENIE........ 1004 hPa
CIŚN.BEZWZGL..... 991 hPa

Sprawdź też: Prognoza pogody Nowy Dwór Mazowiecki


Kraków-Balice (EPKK)

METAR = EPKK 070730Z 24012KT 9999 FEW023TCU BKN040 12/08 Q1004

STACJA........... EPKK - Kraków-Balice (KRK)
POMIAR........... Fri May 7, 09:30 CEST
WIATR............ zachodni południowo-zachodni (WSW) z prędkością 22 km/h
WIDZIALNOŚĆ...... powyżej 10 kilometrów
CHMURY........... zachmurzenie średnie (5/8-7/8)
TEMPERATURA...... 12°C
T.PUNKTU ROSY.... 8°C
WILGOTNOŚĆ....... 77%
CIŚNIENIE........ 1004 hPa
CIŚN.BEZWZGL..... 975 hPa

Sprawdź też: Prognoza pogody Kraków


Łódź-Lublinek (EPLL)

METAR = EPLL 070730Z 36003KT 310V030 9999 SCT006 BKN013 07/06 Q1004

STACJA........... EPLL - Łódź-Lublinek (LCJ)
POMIAR........... Fri May 7, 09:30 CEST
WIATR............ północny (N) z prędkością 6 km/h
WIDZIALNOŚĆ...... powyżej 10 kilometrów
CHMURY........... zachmurzenie średnie (5/8-7/8)
TEMPERATURA...... 7°C
T.PUNKTU ROSY.... 6°C
WILGOTNOŚĆ....... 93%
T.ODCZUWALNA..... 7°C
CIŚNIENIE........ 1004 hPa
CIŚN.BEZWZGL..... 982 hPa

Sprawdź też: Prognoza pogody Łódź


Wrocław-Strachowice (EPWR)

METAR = EPWR 070730Z 31007KT 9999 -RA FEW006 SCT009 BKN013 07/06 Q1006

STACJA........... EPWR - Wrocław-Strachowice (WRO)
POMIAR........... Fri May 7, 09:30 CEST
WIATR............ północno zachodni (NW) z prędkością 13 km/h
WIDZIALNOŚĆ...... powyżej 10 kilometrów
WARUNKI.......... słaby: deszcz 
CHMURY........... zachmurzenie średnie (5/8-7/8)
TEMPERATURA...... 7°C
T.PUNKTU ROSY.... 6°C
WILGOTNOŚĆ....... 93%
T.ODCZUWALNA..... 5°C
CIŚNIENIE........ 1006 hPa
CIŚN.BEZWZGL..... 991 hPa

Sprawdź też: Prognoza pogody Wrocław


Katowice-Pyrzowice (EPKT)

METAR = EPKT 070730Z 23015KT 9999 SCT019 BKN032 11/06 Q1004

STACJA........... EPKT - Katowice-Pyrzowice (KTW)
POMIAR........... Fri May 7, 09:30 CEST
WIATR............ południowo-zachodni (SW) z prędkością 28 km/h
WIDZIALNOŚĆ...... powyżej 10 kilometrów
CHMURY........... zachmurzenie średnie (5/8-7/8)
TEMPERATURA...... 11°C
T.PUNKTU ROSY.... 6°C
WILGOTNOŚĆ....... 72%
CIŚNIENIE........ 1004 hPa
CIŚN.BEZWZGL..... 968 hPa

Sprawdź też: Prognoza pogody Katowice


Gdańsk (EPGD)

METAR = EPGD 070730Z 26006KT 230V300 CAVOK 08/M00 Q1004

STACJA........... EPGD - Gdańsk im. Lecha Wałęsy (GDN)
POMIAR........... Fri May 7, 09:30 CEST
WIATR............ zachodni (W) z prędkością 11 km/h
WIDZIALNOŚĆ...... powyżej 10 kilometrów
CHMURY........... bezchmurne niebo
TEMPERATURA...... 8°C
T.PUNKTU ROSY.... 0°C
WILGOTNOŚĆ....... 57%
T.ODCZUWALNA..... 6°C
CIŚNIENIE........ 1004 hPa
CIŚN.BEZWZGL..... 986 hPa

Sprawdź też: Prognoza pogody Gdańsk


Poznań-Ławica (EPPO)

METAR = EPPO 070730Z 24006KT 210V280 9999 FEW021 10/03 Q1005

STACJA........... EPPO - Poznań-Ławica (POZ)
POMIAR........... Fri May 7, 09:30 CEST
WIATR............ zachodni południowo-zachodni (WSW) z prędkością 11 km/h
WIDZIALNOŚĆ...... powyżej 10 kilometrów
CHMURY........... zachmurzenie niewielkie (1/8-2/8)
TEMPERATURA...... 10°C
T.PUNKTU ROSY.... 3°C
WILGOTNOŚĆ....... 62%
T.ODCZUWALNA..... 8°C
CIŚNIENIE........ 1005 hPa
CIŚN.BEZWZGL..... 994 hPa

Sprawdź też: Prognoza pogody Poznań


Rzeszów-Jasionka (EPRZ)

METAR = EPRZ 070730Z 20016KT 9999 FEW041 11/04 Q1005

STACJA........... EPRZ - Rzeszów-Jasionka (RZE)
POMIAR........... Fri May 7, 09:30 CEST
WIATR............ południowo południowo-zachodni  (SSW) z prędkością 30 km/h
WIDZIALNOŚĆ...... powyżej 10 kilometrów
CHMURY........... zachmurzenie niewielkie (1/8-2/8)
TEMPERATURA...... 11°C
T.PUNKTU ROSY.... 4°C
WILGOTNOŚĆ....... 62%
CIŚNIENIE........ 1005 hPa
CIŚN.BEZWZGL..... 980 hPa

Sprawdź też: Prognoza pogody Rzeszów


Szczecin-Goleniów (EPSC)

METAR = EPSC 070730Z 32006KT CAVOK 08/02 Q1005

STACJA........... EPSC - Szczecin-Goleniów (SZZ)
POMIAR........... Fri May 7, 09:30 CEST
WIATR............ północno zachodni (NW) z prędkością 11 km/h
WIDZIALNOŚĆ...... powyżej 10 kilometrów
CHMURY........... bezchmurne niebo
TEMPERATURA...... 8°C
T.PUNKTU ROSY.... 2°C
WILGOTNOŚĆ....... 66%
T.ODCZUWALNA..... 6°C
CIŚNIENIE........ 1005 hPa
CIŚN.BEZWZGL..... 999 hPa

Sprawdź też: Prognoza pogody Szczecin


Lublin-Świdnik (EPLB)

METAR = EPLB 070730Z 17006KT 9999 -RA OVC034 09/07 Q1005 =

STACJA........... EPLB - Lublin-Świdnik (LUZ)
POMIAR........... Fri May 7, 09:30 CEST
WIATR............ południowy (S) z prędkością 11 km/h
WIDZIALNOŚĆ...... powyżej 10 kilometrów
WARUNKI.......... słaby: deszcz 
CHMURY........... zachmurzenie całkowite (8/8)
TEMPERATURA...... 9°C
T.PUNKTU ROSY.... 7°C
WILGOTNOŚĆ....... 87%
T.ODCZUWALNA..... 7°C
CIŚNIENIE........ 1005 hPa
CIŚN.BEZWZGL..... 981 hPa

Sprawdź też: Prognoza pogody Lublin


Bydgoszcz-Szwederowo (EPBY)

METAR = EPBY 070730Z 27005KT 240V310 9999 FEW023 SCT028 10/03 Q1004=

STACJA........... EPBY - Bydgoszcz-Szwederowo (BZG)
POMIAR........... Fri May 7, 09:30 CEST
WIATR............ zachodni (W) z prędkością 9 km/h
WIDZIALNOŚĆ...... powyżej 10 kilometrów
CHMURY........... zachmurzenie małe (3/8-4/8)
TEMPERATURA...... 10°C
T.PUNKTU ROSY.... 3°C
WILGOTNOŚĆ....... 62%
T.ODCZUWALNA..... 9°C
CIŚNIENIE........ 1004 hPa
CIŚN.BEZWZGL..... 995 hPa

Sprawdź też: Prognoza pogody Bydgoszcz


Zielona Góra-Babimost (EPZG)

METAR = EPZG 070730Z 24008KT 9999 FEW020 BKN041 09/04 Q1006 =

STACJA........... EPZG - Zielona Góra-Babimost (IEG)
POMIAR........... Fri May 7, 09:30 CEST
WIATR............ zachodni południowo-zachodni (WSW) z prędkością 15 km/h
WIDZIALNOŚĆ...... powyżej 10 kilometrów
CHMURY........... zachmurzenie średnie (5/8-7/8)
TEMPERATURA...... 9°C
T.PUNKTU ROSY.... 4°C
WILGOTNOŚĆ....... 71%
T.ODCZUWALNA..... 7°C
CIŚNIENIE........ 1006 hPa
CIŚN.BEZWZGL..... 999 hPa

Sprawdź też: Prognoza pogody Zielona Góra


Szymany Olsztyn-Mazury (EPSY)

METAR = EPSY 070730Z VRB01KT 9999 -RA SCT023 BKN035 07/04 Q1004=

STACJA........... EPSY - Olsztyn-Mazury (SZY)
POMIAR........... Fri May 7, 09:30 CEST
WIATR............ zmienny z prędkością 2 km/h
WIDZIALNOŚĆ...... powyżej 10 kilometrów
WARUNKI.......... słaby: deszcz 
CHMURY........... zachmurzenie średnie (5/8-7/8)
TEMPERATURA...... 7°C
T.PUNKTU ROSY.... 4°C
WILGOTNOŚĆ....... 81%
CIŚNIENIE........ 1004 hPa
CIŚN.BEZWZGL..... 987 hPa

Sprawdź też: Prognoza pogody Olsztyn


Cewice (EPCE)

METAR = EPCE 070730Z 26010KT 9999 FEW032 08/M01 Q1004 RMK 077 054 1/1=

STACJA........... EPCE - Cewice
POMIAR........... Fri May 7, 09:30 CEST
WIATR............ zachodni (W) z prędkością 19 km/h
WIDZIALNOŚĆ...... powyżej 10 kilometrów
CHMURY........... zachmurzenie niewielkie (1/8-2/8)
TEMPERATURA...... 8°C
T.PUNKTU ROSY.... -1°C
WILGOTNOŚĆ....... 53%
T.ODCZUWALNA..... 5°C
CIŚNIENIE........ 1004 hPa
CIŚN.BEZWZGL..... 986 hPa

Darłowo (EPDA)

METAR = EPDA 070730Z 27009KT 230V300 CAVOK 07/02 Q1005 RMK 074 069 0/0=

STACJA........... EPDA - Darłowo
POMIAR........... Fri May 7, 09:30 CEST
WIATR............ zachodni (W) z prędkością 17 km/h
WIDZIALNOŚĆ...... powyżej 10 kilometrów
CHMURY........... bezchmurne niebo
TEMPERATURA...... 7°C
T.PUNKTU ROSY.... 2°C
WILGOTNOŚĆ....... 71%
T.ODCZUWALNA..... 4°C
CIŚNIENIE........ 1005 hPa
CIŚN.BEZWZGL..... 1005 hPa

Dęblin (EPDE)

METAR = EPDE 070730Z NIL=

STACJA........... EPDE - Dęblin
POMIAR........... Fri May 7, 09:30 CEST
DEPESZA.......... brak aktualnej prognozy w treści depeszy

Inowrocław-Latkowo (EPIR)

METAR = EPIR 070730Z 24004KT 9999 FEW020 BKN100 09/03 Q1004 RMK 087 065 7/2=

STACJA........... EPIR - Inowrocław-Latkowo
POMIAR........... Fri May 7, 09:30 CEST
WIATR............ zachodni południowo-zachodni (WSW) z prędkością 7 km/h
WIDZIALNOŚĆ...... powyżej 10 kilometrów
CHMURY........... zachmurzenie średnie (5/8-7/8)
TEMPERATURA...... 9°C
T.PUNKTU ROSY.... 3°C
WILGOTNOŚĆ....... 66%
T.ODCZUWALNA..... 8°C
CIŚNIENIE........ 1004 hPa
CIŚN.BEZWZGL..... 994 hPa

Poznań-Krzesiny (EPKS)

METAR = EPKS 070730Z 26007KT 9999 SCT020 BKN070 08/07 Q1005 RMK 084 091 6/3=

STACJA........... EPKS - Poznań-Krzesiny
POMIAR........... Fri May 7, 09:30 CEST
WIATR............ zachodni (W) z prędkością 13 km/h
WIDZIALNOŚĆ...... powyżej 10 kilometrów
CHMURY........... zachmurzenie średnie (5/8-7/8)
TEMPERATURA...... 8°C
T.PUNKTU ROSY.... 7°C
WILGOTNOŚĆ....... 93%
T.ODCZUWALNA..... 6°C
CIŚNIENIE........ 1005 hPa
CIŚN.BEZWZGL..... 995 hPa

Łask (EPLK)

METAR = EPLK 070730Z 28005KT 250V320 9999 SCT012 BKN031 08/08 Q1004 RMK 076 100 7/3=

STACJA........... EPLK - Łask
POMIAR........... Fri May 7, 09:30 CEST
WIATR............ zachodni (W) z prędkością 9 km/h
WIDZIALNOŚĆ...... powyżej 10 kilometrów
CHMURY........... zachmurzenie średnie (5/8-7/8)
TEMPERATURA...... 8°C
T.PUNKTU ROSY.... 8°C
WILGOTNOŚĆ....... 100%
T.ODCZUWALNA..... 6°C
CIŚNIENIE........ 1004 hPa
CIŚN.BEZWZGL..... 981 hPa

Łęczyca (EPLY)

METAR = EPLY 070730Z 04004KT 9999 SCT010 OVC030 07/05 Q1004 RMK 067 086 8/3=

STACJA........... EPLY - Łęczyca
POMIAR........... Fri May 7, 09:30 CEST
WIATR............ północno-wschodni (NE) z prędkością 7 km/h
WIDZIALNOŚĆ...... powyżej 10 kilometrów
CHMURY........... zachmurzenie całkowite (8/8)
TEMPERATURA...... 7°C
T.PUNKTU ROSY.... 5°C
WILGOTNOŚĆ....... 87%
T.ODCZUWALNA..... 6°C
CIŚNIENIE........ 1004 hPa
CIŚN.BEZWZGL..... 990 hPa

Malbork (EPMB)

METAR = EPMB 070730Z AUTO VRB02KT 9999 ////// 10/05 Q1004 RMK 097 073 ///=

STACJA........... EPMB - Malbork
POMIAR........... Fri May 7, 09:30 CEST
WIATR............ zmienny z prędkością 4 km/h
WIDZIALNOŚĆ...... powyżej 10 kilometrów

Mirosławiec (EPMI)

METAR = EPMI 070730Z 36005KT 310V080 9999 FEW070 BKN200 10/01 Q1005 RMK 095 056 5/1=

STACJA........... EPMI - Mirosławiec
POMIAR........... Fri May 7, 09:30 CEST
WIATR............ północny (N) z prędkością 9 km/h
WIDZIALNOŚĆ...... powyżej 10 kilometrów
CHMURY........... zachmurzenie średnie (5/8-7/8)
TEMPERATURA...... 10°C
T.PUNKTU ROSY.... 1°C
WILGOTNOŚĆ....... 54%
T.ODCZUWALNA..... 9°C
CIŚNIENIE........ 1005 hPa
CIŚN.BEZWZGL..... 987 hPa

Mińsk Mazowiecki (EPMM)

METAR = EPMM 070730Z 24005KT 200V270 7000 -RA BKN006 BKN011 OVC025 07/07 Q1004 RMK 073 100 8/5=

STACJA........... EPMM - Mińsk Mazowiecki
POMIAR........... Fri May 7, 09:30 CEST
WIATR............ zachodni południowo-zachodni (WSW) z prędkością 9 km/h
WIDZIALNOŚĆ...... 7000 metrów
WARUNKI.......... słaby: deszcz 
CHMURY........... zachmurzenie całkowite (8/8)
TEMPERATURA...... 7°C
T.PUNKTU ROSY.... 7°C
WILGOTNOŚĆ....... 100%
T.ODCZUWALNA..... 6°C
CIŚNIENIE........ 1004 hPa
CIŚN.BEZWZGL..... 982 hPa

Nadarzyce (EPNA)

METAR = EPNA 070730Z NIL=

STACJA........... EPNA - Nadarzyce
POMIAR........... Fri May 7, 09:30 CEST
DEPESZA.......... brak aktualnej prognozy w treści depeszy

Gdynia-Kosakowo (EPOK)

METAR = EPOK 070730Z 28007KT 220V320 9999 FEW022 BKN/// 09/M00 Q1004 RMK 087 054 5/2=

STACJA........... EPOK - Gdynia-Kosakowo
POMIAR........... Fri May 7, 09:30 CEST
WIATR............ zachodni (W) z prędkością 13 km/h
WIDZIALNOŚĆ...... powyżej 10 kilometrów
CHMURY........... zachmurzenie niewielkie (1/8-2/8)

Pruszcz Gdański (EPPR)

METAR = EPPR 070730Z 08002KT CAVOK 10/01 Q1004 RMK 099 053 2/2=

STACJA........... EPPR - Pruszcz Gdański
POMIAR........... Fri May 7, 09:30 CEST
WIATR............ wschodni (E) z prędkością 4 km/h
WIDZIALNOŚĆ...... powyżej 10 kilometrów
CHMURY........... bezchmurne niebo
TEMPERATURA...... 10°C
T.PUNKTU ROSY.... 1°C
WILGOTNOŚĆ....... 54%
CIŚNIENIE........ 1004 hPa
CIŚN.BEZWZGL..... 1004 hPa

Powidz (EPPW)

METAR = EPPW 070730Z VRB02KT 9999 SCT015 BKN120 BKN070 08/06 Q1005 RMK 079 086 7/3=

STACJA........... EPPW - Powidz
POMIAR........... Fri May 7, 09:30 CEST
WIATR............ zmienny z prędkością 4 km/h
WIDZIALNOŚĆ...... powyżej 10 kilometrów
CHMURY........... zachmurzenie średnie (5/8-7/8)
TEMPERATURA...... 8°C
T.PUNKTU ROSY.... 6°C
WILGOTNOŚĆ....... 87%
CIŚNIENIE........ 1005 hPa
CIŚN.BEZWZGL..... 991 hPa

Radom-Sadków (EPRA)

METAR = EPRA 070730Z NIL=

STACJA........... EPRA - Radom-Sadków
POMIAR........... Fri May 7, 09:30 CEST
DEPESZA.......... brak aktualnej prognozy w treści depeszy

Świdwin (EPSN)

METAR = EPSN 070730Z 31005KT 260V350 9999 SCT040 BKN070 07/01 Q1005 RMK 070 065 7/4=

STACJA........... EPSN - Świdwin
POMIAR........... Fri May 7, 09:30 CEST
WIATR............ północno zachodni (NW) z prędkością 9 km/h
WIDZIALNOŚĆ...... powyżej 10 kilometrów
CHMURY........... zachmurzenie średnie (5/8-7/8)
TEMPERATURA...... 7°C
T.PUNKTU ROSY.... 1°C
WILGOTNOŚĆ....... 66%
T.ODCZUWALNA..... 6°C
CIŚNIENIE........ 1005 hPa
CIŚN.BEZWZGL..... 991 hPa

Tomaszów Mazowiecki (EPTM)

METAR = EPTM 070730Z 25002KT 8000 SCT006 OVC017 07/05 Q1004 RMK 071 089 8/4=

STACJA........... EPTM - Tomaszów Mazowiecki
POMIAR........... Fri May 7, 09:30 CEST
WIATR............ zachodni południowo-zachodni (WSW) z prędkością 4 km/h
WIDZIALNOŚĆ...... 8000 metrów
CHMURY........... zachmurzenie całkowite (8/8)
TEMPERATURA...... 7°C
T.PUNKTU ROSY.... 5°C
WILGOTNOŚĆ....... 87%
CIŚNIENIE........ 1004 hPa
CIŚN.BEZWZGL..... 983 hPa